Airfield :
LOGIN :

Register | Disclaimer

   EN    FR    IT 

 










Legend :    VFR   Marginal VFR   IFR   Intensive IFR   Very Intensive IFR
Visi :
Ceiling :
>= 8 km
>= 3000ft
5 to 8 km
1000 to 3000 ft
1500m to 5 km
500 to 1000 ft
800 to 1500m
200 to 500 ft
< 800m
< 200 ft
Symbols :   Thunderstorms  Fog  Heavy snow  Heavy precipitations  Wind > 20 kt
SIGMETs :     Misc.  Thunderstorms  Icing  Turbulence  Mountain Waves  Volcanic Ashes






- Airport Elevation : 226 ft
- IATA code : BEX


EGUB - RAF Benson

CURRENT METAR :
  • 172120Z 21002KT 7000 BR SKC M03/M04 Q1039 BECMG 4000 RMK WHT BECMG GRN

EXPIRED METARs :
  • 172050Z 11002KT 7000 BR SKC M02/M03 Q1039 BECMG 4000 RMK WHT BECMG GRN
  • 172020Z 11002KT 7000 BR SKC M03/M03 Q1039 BECMG 4000 RMK WHT BECMG GRN
  • 171950Z 00000KT 8000 BR SKC M00/M01 Q1039 BECMG 4000 RMK BLU BECMG GRN
  • 171920Z 15002KT CAVOK M01/M02 Q1039 BECMG 5000 BR RMK BLU BECMG WHT
  • 171850Z 10001KT CAVOK M01/M01 Q1038 BECMG 7000 BR RMK BLU BECMG WHT

TAF TAF EGUB
Valid from the 17 at 18:00 until the 17 at 23:00 UTC


171637Z 1718/1723 VRB02KT CAVOK
PROB40 1719/1723 4000 BR
PROB30 1721/1723 0500 FZFG VV///
ATIS : +44 1491-837766 (x7524)



MET'MAP, your aeronautical weather chart ! - Copyright ORBIFLY December 2007 - Disclaimer

ORBIFLY MET'MAP TEAM :

Programming & Development : Alexandra Zaïnal
Concept & original design : Baudouin d'Aumeries
Assistance for programming : Marc-Olivier Méhu
Technical & hardware support : Manuel Goepfert

Contact : metmap@orbifly.com




SOURCES & CREDITS :

   NOAA